Terminal Aerodrome Forecast
Issued by NWS Springfield, MO

Home | Current Version | Previous Version | Text Only | Print | Product List | Glossary On
Versions: 1 2 3 4 5 6 7 8 9 10 11 12 13 14 15 16 17
000
FTUS43 KSGF 021200 AAA
TAFSGF
TAF AMD
KSGF 021248Z 0213/0312 17013KT P6SM VCTS BKN050CB
      TEMPO 0213/0215 1SM +TSRA BR BKN035CB
     FM021600 18011KT P6SM VCTS SCT030 BKN050CB
      TEMPO 0216/0220 3SM -TSRA BR SCT030CB OVC040
     FM022000 22015KT 3SM -TSRA BR SCT030CB OVC040
      TEMPO 0221/0301 VRB25KT 1SM +TSRA OVC015CB
     FM030300 27014KT P6SM VCSH OVC015
     FM030600 31015KT P6SM BKN010=

USA.gov is the U.S. government's official web portal to all federal, state and local government web resources and services.